Terminal Aerodrome Forecast
Issued by NWS

Home | Current Version | Previous Version | Text Only | Print | Product List | Glossary On
Versions: 1 2 3 4 5 6 7 8 9 10 11 12 13 14 15 16 17 18 19
000
FTUS45 KABQ 012300
TAFGUP
TAF
KGUP 012340Z 0200/0224 VRB05KT P6SM SKC
     FM020200 VRB03KT P6SM FEW250
      TEMPO 0210/0214 3SM BR SCT006
     FM021800 23007KT P6SM SCT200=

USA.gov is the U.S. government's official web portal to all federal, state and local government web resources and services.